Kezdőlap
METAR-TAF:

METAR-TAF

Repülőterek :

Selebi-Phikwe, Botswana

földrajzi szélesség: 22-03-19S, földrajzi hosszúság: 027-49-13E, magasság: 892 m

Jelenlegi meteorológiai megfigyelések

A jelentés 1 órával és 23 perccel ezelõtt készült, 05:00 UTC
Szélcsend
Hőmérséklet 14°C
Páratartalom 67%
Légköri nyomás 1023 hPa
Látótávolság 10 km, vagy több
felhőtlen 1500 m magasságban, és nincs gomolyfelhõ

METAR: FBSP 160500Z 00000KT CAVOK 14/08 Q1023

Idő: 08:23 (06:23 UTC)

Előrejelzés

A jelentés 18 órával és 23 perccel ezelõtt készült, 12:00 UTC
Az előrejelzés 15-én 15 óra UTC és 15-én 24 óra UTC között érvényes
Északi szél kt
Látótávolság 10 km, vagy több
felhőtlen 1500 m magasságban, és nincs gomolyfelhõ

TAF: FBSP 151200Z 1515/1524 00000KT CAVOK

Meteorológiai megfigyelések és előrejelzések több, mint 4000 repülőtéren (METAR és TAF jelentéseket).

A térképen piros és sárga pontok jelzik az elérhető meteorológiai állomásokat.

Mozgassa az egeret a pont fölött, hogy megjelenjen az állomás neve.

Azután kattintson az időjárási megfigyelések és előrejelzések megtekintéséhez.

A térkép megváltoztatása: kattintson a fekete keresztel jelölt zöld gombra ráközelítéshez, a vonallal jelölt zöld gombra távolításhoz, vagy a zöld nyilakra a szomszédos térképek eléréséhez.


METAR-TAF: